Portada
METAR-TAF:

METAR-TAF

Aeroports :

Wunstorf, Alemanya

latitud: 52-27N, longitud: 009-26E, altitud: 57 m

Observació

L'informe es va fer fa 33 minuts, a les 19:20 UTC
Vent 5 kt del Est/Nord-Est
Temperatura 21°C
Humitat 35%
Pressió 1021 hPa
Visibilitat 10 km o més

METAR: ETNW 011920Z AUTO 07005KT 9999 // ////// 21/05 Q1021 ///

Hora: 21:53 (19:53 UTC)

Pronòstic

L'informe es va fer fa 27 hores i 53 minuts, a les 16:00 UTC
Pronòstic vàlid del 31 a les 17 UTC al 01 a les 17 UTC
Vent 8 kt del Nord-Est
Visibilitat 10 km o més
Escasses núvols a una alçada de 5000 ft

TAF: ETNW 311600Z 3117/0117 04008KT 9999 NSW FEW050 BY ETGL

Observacions i pronòstics meteorològics de més de 4000 aeroports (METAR i TAF).

Les estacions disponibles són els punts grocs i vermells al mapa.

Posi el ratolí al punt desitjat per veure el nom de l'estació.

Feu clic per veure les observacions i els pronòstics meteorològics.

Per canviar el mapa: feu clic els botons verds amb una creu de color negre per apropar; al botó verd amb un guió per allunyar la imatge; o en les fletxes verdes per a mapes adjacents.


METAR-TAF: